Amunt
Inicio > meteoXarxa
Fes-te'n soci

METEOXARXA

Castelló de la Plana
Ubicació Benadressa
Comarca la Plana Alta
Altitud (msnm) 75
Posició geogràfica 39° 58' 58.08" N, 00° 6' 43.92" W
Model
Presa de dades
Font de les dades IVIA
Estadístiques. Resum
Data Temperatura (ºC) Humitat (%) Pressió (hPa) Vent (km/h) Precipit. (mm)
Mínima Mitjana Màxima Mínima Mitjana Màxima Mínima Mitjana Màxima Predom. Mitjana Ràfega màxima Total Dies de pluja
Mínima Mitjana Màxima Mínima Mitjana Màxima
Últimes dades diàries
24-02-2017 7,2     11,6     15,7 91,3 W 2,3 10,0 5,4  
23-02-2017 8,9     12,9     19,9 68,2 NW 3,2 11,2 0,0  
22-02-2017 5,5     12,0     20,1 61,4 W 3,4 11,2 0,0  
21-02-2017 4,9     10,4     19,5 65,9 W 4,3 15,1 0,0  
20-02-2017 5,5     10,3     18,0 69,1 W 4,1 12,2 0,0  
19-02-2017 6,3     10,8     17,1 81,2 NW 3,7 18,6 0,0  
18-02-2017 5,4     10,2     17,2 83,1 W 3,4 12,0 0,2  
17-02-2017 5,9     10,4     17,8 86,0 W 2,9 11,2 0,2  
16-02-2017 7,8     11,5     17,1 87,8 W 2,8 11,2 0,0  
15-02-2017 6,0     10,6     18,0 86,3 W 3,8 12,6 0,0  
14-02-2017 6,1     10,9     18,4 83,7 NW 4,0 12,6 0,2  
13-02-2017 8,3     12,8     17,5 87,1 N 4,8 21,6 6,6  
12-02-2017 10,1     13,6     16,3 78,7 NE 6,4 17,9 0,0  
11-02-2017 7,2     10,6     13,8 83,0 N 4,4 20,1 0,0  
10-02-2017 3,9     8,5     14,0 75,8 NW 3,8 12,8 0,0  
09-02-2017 4,5     9,1     16,1 55,8 W 4,2 25,8 0,0  
08-02-2017 7,4     11,4     16,0 37,7 NW 13,7 39,5 0,0  
07-02-2017 8,1     15,5     23,2 57,8 W 3,5 20,1 0,0  
06-02-2017 7,0     14,4     19,4 46,4 W 6,5 30,7 0,0  
05-02-2017 8,8     14,2     17,5 44,8 W 13,5 46,4 4,0  
04-02-2017 10,3     16,4     20,8 59,2 SW 4,8 26,2 0,0  
03-02-2017 7,4     13,1     19,6 65,8 SW 5,1 30,0 0,0  
02-02-2017 5,0     9,1     13,0 93,3 SW 2,9 13,1 1,4  
01-02-2017 6,6     9,9     16,0 92,3 W 2,3 9,8 0,0  
30-01-2017 6,2     10,7     17,2 83,3 W 2,5 9,0 0,0  
29-01-2017 3,0     8,1     15,3 74,6 W 3,5 10,1 0,0  
28-01-2017 4,3     9,4     17,5 77,5 W 3,6 18,8 2,8  
27-01-2017 7,5     9,7     15,6 89,6 W 4,2 18,5 16,7  
26-01-2017 2,7     7,3     12,3 83,2 NW 2,6 10,1 0,0  
25-01-2017 1,8     7,2     14,3 71,6 NW 3,7 15,6 0,0  
24-01-2017 3,1     8,6     14,4 66,9 W 4,1 15,7 0,0  
23-01-2017 7,6     10,1     13,8 60,8 NW 5,9 23,0 0,0  
Dades del mes en curs (actualitzades fins l'últim dia disponible)
02/2017 3,9 6,8 10,3 11,7 13,0 17,6 23,2 72,6   4,7 46,4 18,1  
Últimes dades mensuals
01/2017 -0,8 4,0 8,9 14,7 19,0 16,7 70,9 100,0 NO 5,2 34,4 185,5
12/2016 1,2 7,4 14,2 11,0 11,4 16,7 19,6 55,7 82,0 91,7 4,6 27,3 91,3 14
11/2016 3,3 8,4 14,9 13,1 12,7 18,9 24,8 42,5 75,2 96,1 4,0 28,4 110,6 14
10/2016 9,8 14,8 17,5 18,8 19,6 24,2 27,5 70,4 80,6 92,8 3,0 20,4 27,5 13
09/2016 12,8 17,3 22,5 28,9 35,0 21,4 70,6 97,2 O 3,5 37,1 46,4
08/2016 15,7 19,3 24,8 30,6 34,3 23,9 70,2 95,3 SO 3,2 20,1 9,9
07/2016 15,8 19,2 25,1 30,9 33,5 27,3 64,5 94,9 SE 3,4 22,7 1,2
06/2016 12,4 16,2 20,8 22,4 24,4 28,4 33,2 36,4 61,5 75,5 3,6 27,5 1,0 2
05/2016 4,6 11,7 17,5 23,2 28,9 16,3 69,1 99,1 O 3,9 28,9 40,2
04/2016 5,2 9,3 15,0 21,2 28,4 17,1 68,5 99,3 NO 4,3 26,5 32,4
03/2016 1,2 6,2 12,2 18,7 25,7 17,6 63,2 99,1 NO 4,5 35,1 26,7
02/2016 -0,3 6,0 11,9 18,6 24,9 17,4 59,1 97,1 O 5,2 36,4 3,6
01/2016 0,3 5,7 11,2 17,8 22,9 17,2 70,6 99,3 O 3,8 30,9 1,2
Dades de l'any en curs (actualitzades fins l'últim dia disponible)
2017 -0,8 5,3 10,3 10,1 9,1 16,0 23,2 71,8   5,0 46,4 203,4  
Últimes dades anuals
2006 483,6
2007 691,0
2008 452,0
2009 -1,9 14,3 22,4 19,5 6,6 25,3 40,1 34,0 68,3 99,0 3,3 39,0 549,0 47
2010 -3,6 10,4 23,2 15,8 5,9 21,8 37,7 35,0 71,0 99,0 3,6 105,0 388,0 98
2011 493,8
2012 304,0
2014 -1,0 11,6 16,9 23,0 33,7 13,2 67,2 96,6 NO 3,8 47,0 396,9
2015 -0,3 12,6 17,4 22,9 34,4 11,1 68,6 98,5 O 4,1 44,2 513,7